sensor_id;sensor_type;location;lat;lon;timestamp;P1;durP1;ratioP1;P2;durP2;ratioP2
41177;SDS011;26912;54.292;18.574;2022-12-24T00:01:08;1.50;;;1.23;;
41177;SDS011;26912;54.292;18.574;2022-12-24T00:03:36;1.38;;;0.65;;
41177;SDS011;26912;54.292;18.574;2022-12-24T00:06:04;3.20;;;1.15;;
41177;SDS011;26912;54.292;18.574;2022-12-24T00:08:37;5.97;;;3.78;;
41177;SDS011;26912;54.292;18.574;2022-12-24T00:11:06;6.65;;;2.50;;
41177;SDS011;26912;54.292;18.574;2022-12-24T00:13:32;6.65;;;3.35;;
41177;SDS011;26912;54.292;18.574;2022-12-24T00:15:59;4.20;;;2.88;;
41177;SDS011;26912;54.292;18.574;2022-12-24T00:18:28;10.60;;;4.07;;
41177;SDS011;26912;54.292;18.574;2022-12-24T00:20:55;3.13;;;2.83;;
41177;SDS011;26912;54.292;18.574;2022-12-24T00:23:21;2.88;;;2.60;;
41177;SDS011;26912;54.292;18.574;2022-12-24T00:25:48;13.20;;;5.00;;
41177;SDS011;26912;54.292;18.574;2022-12-24T00:28:15;15.63;;;9.52;;
41177;SDS011;26912;54.292;18.574;2022-12-24T00:30:42;13.35;;;10.43;;
41177;SDS011;26912;54.292;18.574;2022-12-24T00:33:08;9.15;;;5.97;;
41177;SDS011;26912;54.292;18.574;2022-12-24T00:35:36;6.53;;;2.20;;
41177;SDS011;26912;54.292;18.574;2022-12-24T00:38:03;7.47;;;5.25;;
41177;SDS011;26912;54.292;18.574;2022-12-24T00:40:30;6.43;;;5.72;;
41177;SDS011;26912;54.292;18.574;2022-12-24T00:42:57;2.17;;;1.98;;
41177;SDS011;26912;54.292;18.574;2022-12-24T00:45:24;2.13;;;1.92;;
41177;SDS011;26912;54.292;18.574;2022-12-24T00:47:54;9.98;;;5.95;;
41177;SDS011;26912;54.292;18.574;2022-12-24T00:50:20;21.08;;;4.13;;
41177;SDS011;26912;54.292;18.574;2022-12-24T00:52:47;3.40;;;3.15;;
41177;SDS011;26912;54.292;18.574;2022-12-24T00:55:16;6.28;;;2.42;;
41177;SDS011;26912;54.292;18.574;2022-12-24T00:57:42;2.17;;;2.05;;
41177;SDS011;26912;54.292;18.574;2022-12-24T01:00:09;2.75;;;2.20;;
41177;SDS011;26912;54.292;18.574;2022-12-24T01:02:35;5.97;;;1.92;;
41177;SDS011;26912;54.292;18.574;2022-12-24T01:05:02;1.10;;;0.65;;
41177;SDS011;26912;54.292;18.574;2022-12-24T01:07:36;5.60;;;2.13;;
41177;SDS011;26912;54.292;18.574;2022-12-24T01:10:05;2.13;;;1.08;;
41177;SDS011;26912;54.292;18.574;2022-12-24T01:12:32;1.27;;;0.73;;
41177;SDS011;26912;54.292;18.574;2022-12-24T01:14:59;3.63;;;1.77;;
41177;SDS011;26912;54.292;18.574;2022-12-24T01:17:26;2.83;;;1.50;;
41177;SDS011;26912;54.292;18.574;2022-12-24T01:19:52;0.82;;;0.57;;
41177;SDS011;26912;54.292;18.574;2022-12-24T01:22:19;3.28;;;3.00;;
41177;SDS011;26912;54.292;18.574;2022-12-24T01:24:46;12.05;;;2.08;;
41177;SDS011;26912;54.292;18.574;2022-12-24T01:27:12;1.50;;;1.40;;
41177;SDS011;26912;54.292;18.574;2022-12-24T01:29:41;2.80;;;1.05;;
41177;SDS011;26912;54.292;18.574;2022-12-24T01:32:07;2.50;;;1.48;;
41177;SDS011;26912;54.292;18.574;2022-12-24T01:34:34;13.98;;;3.22;;
41177;SDS011;26912;54.292;18.574;2022-12-24T01:37:01;3.60;;;3.30;;
41177;SDS011;26912;54.292;18.574;2022-12-24T01:39:27;4.22;;;2.42;;
41177;SDS011;26912;54.292;18.574;2022-12-24T01:41:54;0.82;;;0.82;;
41177;SDS011;26912;54.292;18.574;2022-12-24T01:44:40;1.35;;;1.20;;
41177;SDS011;26912;54.292;18.574;2022-12-24T01:47:09;1.00;;;1.00;;
41177;SDS011;26912;54.292;18.574;2022-12-24T01:49:38;1.08;;;0.85;;
41177;SDS011;26912;54.292;18.574;2022-12-24T01:52:08;0.60;;;0.43;;
41177;SDS011;26912;54.292;18.574;2022-12-24T01:54:49;3.95;;;1.45;;
41177;SDS011;26912;54.292;18.574;2022-12-24T01:57:29;1.33;;;0.90;;
41177;SDS011;26912;54.292;18.574;2022-12-24T02:00:01;1.13;;;1.05;;
41177;SDS011;26912;54.292;18.574;2022-12-24T02:02:31;2.55;;;1.92;;
41177;SDS011;26912;54.292;18.574;2022-12-24T02:05:02;0.43;;;0.43;;
41177;SDS011;26912;54.292;18.574;2022-12-24T02:07:35;0.93;;;0.80;;
41177;SDS011;26912;54.292;18.574;2022-12-24T02:10:03;1.70;;;1.60;;
41177;SDS011;26912;54.292;18.574;2022-12-24T02:12:31;5.97;;;0.80;;
41177;SDS011;26912;54.292;18.574;2022-12-24T02:15:00;1.55;;;0.95;;
41177;SDS011;26912;54.292;18.574;2022-12-24T02:17:33;1.25;;;1.15;;
41177;SDS011;26912;54.292;18.574;2022-12-24T02:20:34;0.60;;;0.38;;
41177;SDS011;26912;54.292;18.574;2022-12-24T02:26:06;2.08;;;1.55;;
41177;SDS011;26912;54.292;18.574;2022-12-24T02:31:21;3.00;;;1.75;;
41177;SDS011;26912;54.292;18.574;2022-12-24T02:33:56;0.55;;;0.55;;
41177;SDS011;26912;54.292;18.574;2022-12-24T02:36:46;2.00;;;0.60;;
41177;SDS011;26912;54.292;18.574;2022-12-24T02:39:27;0.63;;;0.63;;
41177;SDS011;26912;54.292;18.574;2022-12-24T02:42:04;1.15;;;0.93;;
41177;SDS011;26912;54.292;18.574;2022-12-24T02:47:09;1.60;;;1.23;;
41177;SDS011;26912;54.292;18.574;2022-12-24T02:49:37;1.33;;;1.27;;
41177;SDS011;26912;54.292;18.574;2022-12-24T02:52:04;1.20;;;0.80;;
41177;SDS011;26912;54.292;18.574;2022-12-24T02:54:30;2.42;;;1.58;;
41177;SDS011;26912;54.292;18.574;2022-12-24T02:57:05;1.75;;;1.55;;
41177;SDS011;26912;54.292;18.574;2022-12-24T03:05:29;1.45;;;0.40;;
41177;SDS011;26912;54.292;18.574;2022-12-24T03:11:10;1.90;;;1.02;;
41177;SDS011;26912;54.292;18.574;2022-12-24T03:13:39;2.80;;;1.08;;
41177;SDS011;26912;54.292;18.574;2022-12-24T03:16:10;1.67;;;0.93;;
41177;SDS011;26912;54.292;18.574;2022-12-24T03:18:41;1.37;;;1.27;;
41177;SDS011;26912;54.292;18.574;2022-12-24T03:23:39;0.90;;;0.85;;
41177;SDS011;26912;54.292;18.574;2022-12-24T03:26:07;0.65;;;0.47;;
41177;SDS011;26912;54.292;18.574;2022-12-24T03:28:36;0.63;;;0.50;;
41177;SDS011;26912;54.292;18.574;2022-12-24T03:31:05;1.85;;;1.60;;
41177;SDS011;26912;54.292;18.574;2022-12-24T03:33:33;1.42;;;0.75;;
41177;SDS011;26912;54.292;18.574;2022-12-24T03:35:59;0.65;;;0.60;;
41177;SDS011;26912;54.292;18.574;2022-12-24T03:38:27;5.68;;;1.30;;
41177;SDS011;26912;54.292;18.574;2022-12-24T03:40:53;0.47;;;0.47;;
41177;SDS011;26912;54.292;18.574;2022-12-24T03:43:20;1.45;;;1.05;;
41177;SDS011;26912;54.292;18.574;2022-12-24T03:45:46;0.47;;;0.47;;
41177;SDS011;26912;54.292;18.574;2022-12-24T03:48:13;0.93;;;0.68;;
41177;SDS011;26912;54.292;18.574;2022-12-24T03:50:39;1.42;;;1.33;;
41177;SDS011;26912;54.292;18.574;2022-12-24T03:53:06;0.80;;;0.80;;
41177;SDS011;26912;54.292;18.574;2022-12-24T03:55:32;10.07;;;1.77;;
41177;SDS011;26912;54.292;18.574;2022-12-24T03:57:59;0.60;;;0.60;;
41177;SDS011;26912;54.292;18.574;2022-12-24T04:00:25;0.82;;;0.82;;
41177;SDS011;26912;54.292;18.574;2022-12-24T04:02:52;2.55;;;1.65;;
41177;SDS011;26912;54.292;18.574;2022-12-24T04:05:19;4.07;;;2.50;;
41177;SDS011;26912;54.292;18.574;2022-12-24T04:07:46;0.70;;;0.70;;
41177;SDS011;26912;54.292;18.574;2022-12-24T04:10:13;0.20;;;0.20;;
41177;SDS011;26912;54.292;18.574;2022-12-24T04:12:41;0.45;;;0.45;;
41177;SDS011;26912;54.292;18.574;2022-12-24T04:15:08;2.25;;;2.05;;
41177;SDS011;26912;54.292;18.574;2022-12-24T04:17:35;2.22;;;0.95;;
41177;SDS011;26912;54.292;18.574;2022-12-24T04:20:02;3.42;;;1.08;;
41177;SDS011;26912;54.292;18.574;2022-12-24T04:22:29;1.05;;;0.98;;
41177;SDS011;26912;54.292;18.574;2022-12-24T04:24:57;0.85;;;0.55;;
41177;SDS011;26912;54.292;18.574;2022-12-24T04:27:23;7.03;;;1.45;;
41177;SDS011;26912;54.292;18.574;2022-12-24T04:29:49;1.05;;;1.05;;
41177;SDS011;26912;54.292;18.574;2022-12-24T04:32:16;0.30;;;0.30;;
41177;SDS011;26912;54.292;18.574;2022-12-24T04:34:43;0.30;;;0.30;;
41177;SDS011;26912;54.292;18.574;2022-12-24T04:37:09;0.10;;;0.10;;
41177;SDS011;26912;54.292;18.574;2022-12-24T04:39:36;1.02;;;0.60;;
41177;SDS011;26912;54.292;18.574;2022-12-24T04:42:02;0.63;;;0.63;;
41177;SDS011;26912;54.292;18.574;2022-12-24T04:44:29;2.17;;;1.00;;
41177;SDS011;26912;54.292;18.574;2022-12-24T04:46:55;0.57;;;0.57;;
41177;SDS011;26912;54.292;18.574;2022-12-24T04:49:22;0.50;;;0.30;;
41177;SDS011;26912;54.292;18.574;2022-12-24T04:51:48;0.22;;;0.22;;
41177;SDS011;26912;54.292;18.574;2022-12-24T04:54:15;0.47;;;0.47;;
41177;SDS011;26912;54.292;18.574;2022-12-24T04:56:41;1.35;;;0.93;;
41177;SDS011;26912;54.292;18.574;2022-12-24T04:59:08;0.70;;;0.40;;
41177;SDS011;26912;54.292;18.574;2022-12-24T05:01:34;0.10;;;0.10;;
41177;SDS011;26912;54.292;18.574;2022-12-24T05:04:01;0.20;;;0.20;;
41177;SDS011;26912;54.292;18.574;2022-12-24T05:06:28;0.50;;;0.50;;
41177;SDS011;26912;54.292;18.574;2022-12-24T05:08:57;0.32;;;0.17;;
41177;SDS011;26912;54.292;18.574;2022-12-24T05:11:25;0.93;;;0.77;;
41177;SDS011;26912;54.292;18.574;2022-12-24T05:13:52;1.15;;;0.50;;
41177;SDS011;26912;54.292;18.574;2022-12-24T05:16:21;0.30;;;0.30;;
41177;SDS011;26912;54.292;18.574;2022-12-24T05:18:48;0.50;;;0.50;;
41177;SDS011;26912;54.292;18.574;2022-12-24T05:21:17;0.63;;;0.25;;
41177;SDS011;26912;54.292;18.574;2022-12-24T05:23:46;1.80;;;1.45;;
41177;SDS011;26912;54.292;18.574;2022-12-24T05:29:29;0.35;;;0.35;;
41177;SDS011;26912;54.292;18.574;2022-12-24T05:31:56;0.38;;;0.38;;
41177;SDS011;26912;54.292;18.574;2022-12-24T05:34:22;0.15;;;0.15;;
41177;SDS011;26912;54.292;18.574;2022-12-24T05:36:49;0.38;;;0.38;;
41177;SDS011;26912;54.292;18.574;2022-12-24T05:39:16;1.55;;;0.88;;
41177;SDS011;26912;54.292;18.574;2022-12-24T05:41:43;1.10;;;1.02;;
41177;SDS011;26912;54.292;18.574;2022-12-24T05:44:10;2.25;;;1.23;;
41177;SDS011;26912;54.292;18.574;2022-12-24T05:46:37;2.38;;;0.57;;
41177;SDS011;26912;54.292;18.574;2022-12-24T05:49:04;2.13;;;1.95;;
41177;SDS011;26912;54.292;18.574;2022-12-24T05:51:30;1.23;;;1.20;;
41177;SDS011;26912;54.292;18.574;2022-12-24T05:53:57;0.68;;;0.68;;
41177;SDS011;26912;54.292;18.574;2022-12-24T05:56:24;1.77;;;1.02;;
41177;SDS011;26912;54.292;18.574;2022-12-24T05:58:51;1.88;;;0.85;;
41177;SDS011;26912;54.292;18.574;2022-12-24T06:01:19;2.60;;;1.60;;
41177;SDS011;26912;54.292;18.574;2022-12-24T06:03:47;3.28;;;1.55;;
41177;SDS011;26912;54.292;18.574;2022-12-24T06:06:20;1.13;;;1.08;;
41177;SDS011;26912;54.292;18.574;2022-12-24T06:08:52;1.85;;;0.77;;
41177;SDS011;26912;54.292;18.574;2022-12-24T06:11:21;0.85;;;0.85;;
41177;SDS011;26912;54.292;18.574;2022-12-24T06:13:49;0.43;;;0.43;;
41177;SDS011;26912;54.292;18.574;2022-12-24T06:16:16;0.57;;;0.57;;
41177;SDS011;26912;54.292;18.574;2022-12-24T06:18:44;2.97;;;1.67;;
41177;SDS011;26912;54.292;18.574;2022-12-24T06:21:11;1.17;;;0.50;;
41177;SDS011;26912;54.292;18.574;2022-12-24T06:23:39;0.80;;;0.80;;
41177;SDS011;26912;54.292;18.574;2022-12-24T06:26:08;1.95;;;0.47;;
41177;SDS011;26912;54.292;18.574;2022-12-24T06:28:37;1.45;;;0.47;;
41177;SDS011;26912;54.292;18.574;2022-12-24T06:31:05;0.43;;;0.43;;
41177;SDS011;26912;54.292;18.574;2022-12-24T06:33:32;0.45;;;0.45;;
41177;SDS011;26912;54.292;18.574;2022-12-24T06:35:59;2.38;;;1.38;;
41177;SDS011;26912;54.292;18.574;2022-12-24T06:38:28;1.05;;;0.60;;
41177;SDS011;26912;54.292;18.574;2022-12-24T06:40:55;0.52;;;0.30;;
41177;SDS011;26912;54.292;18.574;2022-12-24T06:43:22;0.80;;;0.80;;
41177;SDS011;26912;54.292;18.574;2022-12-24T06:45:49;1.13;;;0.80;;
41177;SDS011;26912;54.292;18.574;2022-12-24T06:48:15;2.80;;;1.65;;
41177;SDS011;26912;54.292;18.574;2022-12-24T06:50:42;1.55;;;0.32;;
41177;SDS011;26912;54.292;18.574;2022-12-24T06:53:09;0.20;;;0.20;;
41177;SDS011;26912;54.292;18.574;2022-12-24T06:55:35;0.32;;;0.25;;
41177;SDS011;26912;54.292;18.574;2022-12-24T06:58:02;1.05;;;1.05;;
41177;SDS011;26912;54.292;18.574;2022-12-24T07:00:29;0.90;;;0.90;;
41177;SDS011;26912;54.292;18.574;2022-12-24T07:02:56;0.73;;;0.50;;
41177;SDS011;26912;54.292;18.574;2022-12-24T07:05:23;0.50;;;0.50;;
41177;SDS011;26912;54.292;18.574;2022-12-24T07:07:49;0.57;;;0.57;;
41177;SDS011;26912;54.292;18.574;2022-12-24T07:10:16;0.50;;;0.50;;
41177;SDS011;26912;54.292;18.574;2022-12-24T07:12:43;1.30;;;1.05;;
41177;SDS011;26912;54.292;18.574;2022-12-24T07:15:11;1.83;;;1.02;;
41177;SDS011;26912;54.292;18.574;2022-12-24T07:17:38;0.47;;;0.47;;
41177;SDS011;26912;54.292;18.574;2022-12-24T07:20:05;1.15;;;0.95;;
41177;SDS011;26912;54.292;18.574;2022-12-24T07:22:34;0.55;;;0.55;;
41177;SDS011;26912;54.292;18.574;2022-12-24T07:25:01;1.15;;;1.05;;
41177;SDS011;26912;54.292;18.574;2022-12-24T07:27:27;0.88;;;0.80;;
41177;SDS011;26912;54.292;18.574;2022-12-24T07:29:55;1.13;;;1.02;;
41177;SDS011;26912;54.292;18.574;2022-12-24T07:32:22;1.05;;;1.05;;
41177;SDS011;26912;54.292;18.574;2022-12-24T07:34:48;0.70;;;0.45;;
41177;SDS011;26912;54.292;18.574;2022-12-24T07:37:15;0.95;;;0.95;;
41177;SDS011;26912;54.292;18.574;2022-12-24T07:39:41;4.90;;;0.40;;
41177;SDS011;26912;54.292;18.574;2022-12-24T07:42:08;0.50;;;0.50;;
41177;SDS011;26912;54.292;18.574;2022-12-24T07:44:35;0.63;;;0.63;;
41177;SDS011;26912;54.292;18.574;2022-12-24T07:47:01;0.73;;;0.63;;
41177;SDS011;26912;54.292;18.574;2022-12-24T07:49:28;0.60;;;0.60;;
41177;SDS011;26912;54.292;18.574;2022-12-24T07:51:54;0.40;;;0.40;;
41177;SDS011;26912;54.292;18.574;2022-12-24T07:54:21;1.30;;;1.20;;
41177;SDS011;26912;54.292;18.574;2022-12-24T07:56:47;2.55;;;1.05;;
41177;SDS011;26912;54.292;18.574;2022-12-24T07:59:14;0.30;;;0.30;;
41177;SDS011;26912;54.292;18.574;2022-12-24T08:01:41;0.77;;;0.60;;
41177;SDS011;26912;54.292;18.574;2022-12-24T08:04:08;0.68;;;0.68;;
41177;SDS011;26912;54.292;18.574;2022-12-24T08:06:34;0.68;;;0.68;;
41177;SDS011;26912;54.292;18.574;2022-12-24T08:09:01;0.80;;;0.80;;
41177;SDS011;26912;54.292;18.574;2022-12-24T08:11:27;0.40;;;0.40;;
41177;SDS011;26912;54.292;18.574;2022-12-24T08:13:54;1.85;;;1.02;;
41177;SDS011;26912;54.292;18.574;2022-12-24T08:16:20;0.50;;;0.50;;
41177;SDS011;26912;54.292;18.574;2022-12-24T08:18:47;2.38;;;1.33;;
41177;SDS011;26912;54.292;18.574;2022-12-24T08:21:14;2.15;;;0.93;;
41177;SDS011;26912;54.292;18.574;2022-12-24T08:23:41;1.23;;;1.13;;
41177;SDS011;26912;54.292;18.574;2022-12-24T08:26:08;1.02;;;0.85;;
41177;SDS011;26912;54.292;18.574;2022-12-24T08:28:35;2.38;;;2.17;;
41177;SDS011;26912;54.292;18.574;2022-12-24T08:31:02;1.67;;;0.82;;
41177;SDS011;26912;54.292;18.574;2022-12-24T08:33:29;4.35;;;1.95;;
41177;SDS011;26912;54.292;18.574;2022-12-24T08:35:56;2.35;;;2.17;;
41177;SDS011;26912;54.292;18.574;2022-12-24T08:38:23;2.13;;;2.03;;
41177;SDS011;26912;54.292;18.574;2022-12-24T08:40:51;0.52;;;0.45;;
41177;SDS011;26912;54.292;18.574;2022-12-24T08:43:21;4.90;;;1.15;;
41177;SDS011;26912;54.292;18.574;2022-12-24T08:45:48;1.08;;;1.00;;
41177;SDS011;26912;54.292;18.574;2022-12-24T08:48:14;2.40;;;1.60;;
41177;SDS011;26912;54.292;18.574;2022-12-24T08:50:41;6.57;;;1.30;;
41177;SDS011;26912;54.292;18.574;2022-12-24T08:53:09;2.10;;;1.25;;
41177;SDS011;26912;54.292;18.574;2022-12-24T08:55:35;2.35;;;1.92;;
41177;SDS011;26912;54.292;18.574;2022-12-24T08:58:03;0.70;;;0.70;;
41177;SDS011;26912;54.292;18.574;2022-12-24T09:00:31;2.28;;;1.73;;
41177;SDS011;26912;54.292;18.574;2022-12-24T09:02:59;3.00;;;2.20;;
41177;SDS011;26912;54.292;18.574;2022-12-24T09:05:25;4.55;;;1.65;;
41177;SDS011;26912;54.292;18.574;2022-12-24T09:07:54;0.90;;;0.90;;
41177;SDS011;26912;54.292;18.574;2022-12-24T09:10:20;4.20;;;0.90;;
41177;SDS011;26912;54.292;18.574;2022-12-24T09:12:47;3.97;;;1.55;;
41177;SDS011;26912;54.292;18.574;2022-12-24T09:15:14;1.92;;;1.77;;
41177;SDS011;26912;54.292;18.574;2022-12-24T09:17:40;5.43;;;1.35;;
41177;SDS011;26912;54.292;18.574;2022-12-24T09:20:07;3.83;;;2.17;;
41177;SDS011;26912;54.292;18.574;2022-12-24T09:22:36;3.40;;;1.73;;
41177;SDS011;26912;54.292;18.574;2022-12-24T09:25:03;1.30;;;0.85;;
41177;SDS011;26912;54.292;18.574;2022-12-24T09:27:36;1.35;;;1.17;;
41177;SDS011;26912;54.292;18.574;2022-12-24T09:30:03;1.42;;;0.85;;
41177;SDS011;26912;54.292;18.574;2022-12-24T09:32:31;1.08;;;0.93;;
41177;SDS011;26912;54.292;18.574;2022-12-24T09:34:58;2.08;;;1.05;;
41177;SDS011;26912;54.292;18.574;2022-12-24T09:37:25;2.17;;;1.33;;
41177;SDS011;26912;54.292;18.574;2022-12-24T09:39:53;0.82;;;0.82;;
41177;SDS011;26912;54.292;18.574;2022-12-24T09:42:27;1.13;;;1.05;;
41177;SDS011;26912;54.292;18.574;2022-12-24T09:47:52;2.03;;;1.63;;
41177;SDS011;26912;54.292;18.574;2022-12-24T09:52:59;3.05;;;1.25;;
41177;SDS011;26912;54.292;18.574;2022-12-24T09:55:36;1.27;;;1.17;;
41177;SDS011;26912;54.292;18.574;2022-12-24T09:58:14;1.00;;;0.80;;
41177;SDS011;26912;54.292;18.574;2022-12-24T10:00:46;4.20;;;1.55;;
41177;SDS011;26912;54.292;18.574;2022-12-24T10:03:15;0.57;;;0.57;;
41177;SDS011;26912;54.292;18.574;2022-12-24T10:06:17;2.25;;;1.65;;
41177;SDS011;26912;54.292;18.574;2022-12-24T10:19:39;1.08;;;0.98;;
41177;SDS011;26912;54.292;18.574;2022-12-24T10:25:22;0.82;;;0.65;;
41177;SDS011;26912;54.292;18.574;2022-12-24T10:27:40;1.65;;;1.55;;
41177;SDS011;26912;54.292;18.574;2022-12-24T10:30:13;0.47;;;0.47;;
41177;SDS011;26912;54.292;18.574;2022-12-24T10:32:41;1.20;;;0.75;;
41177;SDS011;26912;54.292;18.574;2022-12-24T10:37:45;0.75;;;0.75;;
41177;SDS011;26912;54.292;18.574;2022-12-24T10:40:28;0.40;;;0.38;;
41177;SDS011;26912;54.292;18.574;2022-12-24T10:43:14;1.38;;;0.50;;
41177;SDS011;26912;54.292;18.574;2022-12-24T10:45:45;0.28;;;0.28;;
41177;SDS011;26912;54.292;18.574;2022-12-24T10:48:25;0.77;;;0.77;;
41177;SDS011;26912;54.292;18.574;2022-12-24T10:51:20;0.47;;;0.47;;
41177;SDS011;26912;54.292;18.574;2022-12-24T10:54:13;0.20;;;0.20;;
41177;SDS011;26912;54.292;18.574;2022-12-24T10:56:47;0.35;;;0.32;;
41177;SDS011;26912;54.292;18.574;2022-12-24T10:59:30;1.13;;;0.65;;
41177;SDS011;26912;54.292;18.574;2022-12-24T11:04:58;0.63;;;0.35;;
41177;SDS011;26912;54.292;18.574;2022-12-24T11:07:27;0.10;;;0.10;;
41177;SDS011;26912;54.292;18.574;2022-12-24T11:10:01;0.10;;;0.10;;
41177;SDS011;26912;54.292;18.574;2022-12-24T11:12:36;0.20;;;0.20;;
41177;SDS011;26912;54.292;18.574;2022-12-24T11:18:03;0.47;;;0.15;;
41177;SDS011;26912;54.292;18.574;2022-12-24T11:20:37;0.63;;;0.50;;
41177;SDS011;26912;54.292;18.574;2022-12-24T11:23:04;0.65;;;0.65;;
41177;SDS011;26912;54.292;18.574;2022-12-24T11:25:32;0.00;;;0.00;;
41177;SDS011;26912;54.292;18.574;2022-12-24T11:28:09;0.57;;;0.25;;
41177;SDS011;26912;54.292;18.574;2022-12-24T11:30:37;0.22;;;0.22;;
41177;SDS011;26912;54.292;18.574;2022-12-24T11:33:22;0.00;;;0.00;;
41177;SDS011;26912;54.292;18.574;2022-12-24T11:35:50;0.80;;;0.50;;
41177;SDS011;26912;54.292;18.574;2022-12-24T11:38:32;0.45;;;0.45;;
41177;SDS011;26912;54.292;18.574;2022-12-24T11:41:03;1.35;;;0.30;;
41177;SDS011;26912;54.292;18.574;2022-12-24T11:43:40;0.57;;;0.57;;
41177;SDS011;26912;54.292;18.574;2022-12-24T11:46:17;0.77;;;0.77;;
41177;SDS011;26912;54.292;18.574;2022-12-24T11:48:45;0.20;;;0.20;;
41177;SDS011;26912;54.292;18.574;2022-12-24T11:51:20;0.15;;;0.15;;
41177;SDS011;26912;54.292;18.574;2022-12-24T11:54:03;0.28;;;0.28;;
41177;SDS011;26912;54.292;18.574;2022-12-24T11:56:57;1.20;;;0.30;;
41177;SDS011;26912;54.292;18.574;2022-12-24T11:59:31;0.52;;;0.38;;
41177;SDS011;26912;54.292;18.574;2022-12-24T12:04:43;0.35;;;0.20;;
41177;SDS011;26912;54.292;18.574;2022-12-24T12:09:49;0.43;;;0.43;;
41177;SDS011;26912;54.292;18.574;2022-12-24T12:12:25;0.20;;;0.20;;
41177;SDS011;26912;54.292;18.574;2022-12-24T12:17:50;0.30;;;0.30;;
41177;SDS011;26912;54.292;18.574;2022-12-24T12:22:59;0.32;;;0.32;;
41177;SDS011;26912;54.292;18.574;2022-12-24T12:26:06;1.13;;;0.63;;
41177;SDS011;26912;54.292;18.574;2022-12-24T12:29:01;1.08;;;0.93;;
41177;SDS011;26912;54.292;18.574;2022-12-24T12:32:20;6.55;;;0.63;;
41177;SDS011;26912;54.292;18.574;2022-12-24T12:34:31;0.38;;;0.38;;
41177;SDS011;26912;54.292;18.574;2022-12-24T12:37:18;0.70;;;0.70;;
41177;SDS011;26912;54.292;18.574;2022-12-24T12:39:54;1.35;;;1.15;;
41177;SDS011;26912;54.292;18.574;2022-12-24T12:50:33;0.88;;;0.85;;
41177;SDS011;26912;54.292;18.574;2022-12-24T13:01:28;1.27;;;1.13;;
41177;SDS011;26912;54.292;18.574;2022-12-24T13:10:20;2.22;;;0.85;;
41177;SDS011;26912;54.292;18.574;2022-12-24T13:13:17;2.67;;;1.05;;
41177;SDS011;26912;54.292;18.574;2022-12-24T13:21:41;1.88;;;0.75;;
41177;SDS011;26912;54.292;18.574;2022-12-24T13:24:14;5.28;;;0.63;;
41177;SDS011;26912;54.292;18.574;2022-12-24T13:29:42;0.60;;;0.40;;
41177;SDS011;26912;54.292;18.574;2022-12-24T13:37:32;1.08;;;0.55;;
41177;SDS011;26912;54.292;18.574;2022-12-24T13:40:01;1.17;;;1.08;;
41177;SDS011;26912;54.292;18.574;2022-12-24T13:43:16;3.00;;;1.63;;
41177;SDS011;26912;54.292;18.574;2022-12-24T13:47:54;1.98;;;1.38;;
41177;SDS011;26912;54.292;18.574;2022-12-24T13:50:23;2.20;;;1.95;;
41177;SDS011;26912;54.292;18.574;2022-12-24T13:53:03;4.93;;;1.90;;
41177;SDS011;26912;54.292;18.574;2022-12-24T13:55:31;0.90;;;0.90;;
41177;SDS011;26912;54.292;18.574;2022-12-24T13:58:02;1.77;;;1.38;;
41177;SDS011;26912;54.292;18.574;2022-12-24T14:00:31;1.75;;;1.50;;
